Opolis, Kansas
Current Conditions -  °F | °C
As of 12:55 PM on Friday 21 Nov 2014 (Local Time) from KPTS Reporting Station
Light Rain Light Rain  
Wind Chill: 45°   Ceiling: 1700
Heat Index: 48°   Visibility: 5mi
Dew Point: 48°   Wind: 8mph
Humidity: 100%   Direction: 140°SE
Pressure: 30.11"   Gusts: NA
Location:  37.34°N, 94.62°W
Report Text: KPTS 211855Z AUTO 14007KT 5SM -RA OVC017 09/09 A3011 RMK AO2 P0020 T00910091
Loading
Personal Weather Stations






























Interactive Weather Map New forecast layout! Learn more

10-Day Weather Forecast

Advertisements
Track Severe Weather on mobile